Terminal Aerodrome Forecast
Issued by NWS

Home | Current Version | Previous Version | Text Only | Print | Product List | Glossary Off
Versions: 1 2 3 4 5 6 7 8 9 10 11 12 13 14 15 16 17 18 19 20 21 22 23 24 25 26 27 28

811
FTUS43 KLOT 241959 AAA
TAFDPA
TAF AMD
KDPA 241959Z 2420/2518 35007KT P6SM OVC005
     FM242300 30009KT P6SM OVC005
     FM250300 29013KT P6SM BKN009 OVC012
      TEMPO 2506/2507 3SM -RASN
     FM250700 29014G21KT 2SM -SN OVC015
     FM251400 30018G26KT P6SM -SN OVC020=

USA.gov is the U.S. government's official web portal to all federal, state and local government web resources and services.